sensor_id;sensor_type;location;lat;lon;timestamp;temperature;humidity
52965;DHT22;42923;53.220;6.528;2024-01-15T00:01:17;1.60;99.90
52965;DHT22;42923;53.220;6.528;2024-01-15T00:03:42;1.70;99.90
52965;DHT22;42923;53.220;6.528;2024-01-15T00:06:08;1.60;99.90
52965;DHT22;42923;53.220;6.528;2024-01-15T00:08:34;1.60;99.90
52965;DHT22;42923;53.220;6.528;2024-01-15T00:10:59;1.60;99.90
52965;DHT22;42923;53.220;6.528;2024-01-15T00:13:25;1.50;99.90
52965;DHT22;42923;53.220;6.528;2024-01-15T00:15:51;1.50;99.90
52965;DHT22;42923;53.220;6.528;2024-01-15T00:18:16;1.40;99.90
52965;DHT22;42923;53.220;6.528;2024-01-15T00:20:42;1.40;99.90
52965;DHT22;42923;53.220;6.528;2024-01-15T00:23:08;1.40;99.90
52965;DHT22;42923;53.220;6.528;2024-01-15T00:25:33;1.30;99.90
52965;DHT22;42923;53.220;6.528;2024-01-15T00:27:59;1.30;99.90
52965;DHT22;42923;53.220;6.528;2024-01-15T00:30:25;1.30;99.90
52965;DHT22;42923;53.220;6.528;2024-01-15T00:32:50;1.30;99.90
52965;DHT22;42923;53.220;6.528;2024-01-15T00:35:16;1.20;99.90
52965;DHT22;42923;53.220;6.528;2024-01-15T00:37:42;1.20;99.90
52965;DHT22;42923;53.220;6.528;2024-01-15T00:40:08;1.20;99.90
52965;DHT22;42923;53.220;6.528;2024-01-15T00:42:34;1.20;99.90
52965;DHT22;42923;53.220;6.528;2024-01-15T00:44:59;1.20;99.90
52965;DHT22;42923;53.220;6.528;2024-01-15T00:47:26;1.20;99.90
52965;DHT22;42923;53.220;6.528;2024-01-15T00:49:51;1.20;99.90
52965;DHT22;42923;53.220;6.528;2024-01-15T00:52:17;1.20;99.90
52965;DHT22;42923;53.220;6.528;2024-01-15T00:54:42;1.20;99.90
52965;DHT22;42923;53.220;6.528;2024-01-15T00:57:08;1.30;99.90
52965;DHT22;42923;53.220;6.528;2024-01-15T00:59:34;1.30;99.90
52965;DHT22;42923;53.220;6.528;2024-01-15T01:01:59;1.30;99.90
52965;DHT22;42923;53.220;6.528;2024-01-15T01:04:25;1.40;99.90
52965;DHT22;42923;53.220;6.528;2024-01-15T01:06:51;1.40;99.90
52965;DHT22;42923;53.220;6.528;2024-01-15T01:09:16;1.40;99.90
52965;DHT22;42923;53.220;6.528;2024-01-15T01:11:42;1.40;99.90
52965;DHT22;42923;53.220;6.528;2024-01-15T01:14:08;1.30;99.90
52965;DHT22;42923;53.220;6.528;2024-01-15T01:16:33;1.30;99.90
52965;DHT22;42923;53.220;6.528;2024-01-15T01:19:05;1.20;99.90
52965;DHT22;42923;53.220;6.528;2024-01-15T01:21:32;1.30;99.90
52965;DHT22;42923;53.220;6.528;2024-01-15T01:23:58;1.20;99.90
52965;DHT22;42923;53.220;6.528;2024-01-15T01:26:23;1.30;99.90
52965;DHT22;42923;53.220;6.528;2024-01-15T01:28:49;1.30;99.90
52965;DHT22;42923;53.220;6.528;2024-01-15T01:31:16;1.40;99.90
52965;DHT22;42923;53.220;6.528;2024-01-15T01:33:42;1.40;99.90
52965;DHT22;42923;53.220;6.528;2024-01-15T01:36:10;1.40;99.90
52965;DHT22;42923;53.220;6.528;2024-01-15T01:38:37;1.50;99.90
52965;DHT22;42923;53.220;6.528;2024-01-15T01:41:02;1.50;99.90
52965;DHT22;42923;53.220;6.528;2024-01-15T01:43:28;1.60;99.90
52965;DHT22;42923;53.220;6.528;2024-01-15T01:45:56;1.50;99.90
52965;DHT22;42923;53.220;6.528;2024-01-15T01:48:23;1.50;99.90
52965;DHT22;42923;53.220;6.528;2024-01-15T01:50:50;1.50;99.90
52965;DHT22;42923;53.220;6.528;2024-01-15T01:53:16;1.50;99.90
52965;DHT22;42923;53.220;6.528;2024-01-15T01:55:42;1.50;99.90
52965;DHT22;42923;53.220;6.528;2024-01-15T01:58:08;1.50;99.90
52965;DHT22;42923;53.220;6.528;2024-01-15T02:00:34;1.40;99.90
52965;DHT22;42923;53.220;6.528;2024-01-15T02:03:00;1.40;99.90
52965;DHT22;42923;53.220;6.528;2024-01-15T02:05:29;1.30;99.90
52965;DHT22;42923;53.220;6.528;2024-01-15T02:07:55;1.40;99.90
52965;DHT22;42923;53.220;6.528;2024-01-15T02:10:21;1.40;99.90
52965;DHT22;42923;53.220;6.528;2024-01-15T02:12:47;1.40;99.90
52965;DHT22;42923;53.220;6.528;2024-01-15T02:15:14;1.40;99.90
52965;DHT22;42923;53.220;6.528;2024-01-15T02:17:59;1.40;99.90
52965;DHT22;42923;53.220;6.528;2024-01-15T02:20:25;1.40;99.90
52965;DHT22;42923;53.220;6.528;2024-01-15T02:22:52;1.40;99.90
52965;DHT22;42923;53.220;6.528;2024-01-15T02:25:18;1.40;99.90
52965;DHT22;42923;53.220;6.528;2024-01-15T02:27:44;1.40;99.90
52965;DHT22;42923;53.220;6.528;2024-01-15T02:30:11;1.40;99.90
52965;DHT22;42923;53.220;6.528;2024-01-15T02:32:38;1.50;99.90
52965;DHT22;42923;53.220;6.528;2024-01-15T02:35:04;1.50;99.90
52965;DHT22;42923;53.220;6.528;2024-01-15T02:37:30;1.60;99.90
52965;DHT22;42923;53.220;6.528;2024-01-15T02:39:56;1.60;99.90
52965;DHT22;42923;53.220;6.528;2024-01-15T02:42:21;1.60;99.90
52965;DHT22;42923;53.220;6.528;2024-01-15T02:44:47;1.60;99.90
52965;DHT22;42923;53.220;6.528;2024-01-15T02:47:14;1.60;99.90
52965;DHT22;42923;53.220;6.528;2024-01-15T02:49:40;1.60;99.90
52965;DHT22;42923;53.220;6.528;2024-01-15T02:52:06;1.70;99.90
52965;DHT22;42923;53.220;6.528;2024-01-15T02:54:31;1.60;99.90
52965;DHT22;42923;53.220;6.528;2024-01-15T02:56:57;1.60;99.90
52965;DHT22;42923;53.220;6.528;2024-01-15T02:59:23;1.60;99.90
52965;DHT22;42923;53.220;6.528;2024-01-15T03:01:48;1.50;99.90
52965;DHT22;42923;53.220;6.528;2024-01-15T03:04:14;1.50;99.90
52965;DHT22;42923;53.220;6.528;2024-01-15T03:06:40;1.50;99.90
52965;DHT22;42923;53.220;6.528;2024-01-15T03:09:05;1.50;99.90
52965;DHT22;42923;53.220;6.528;2024-01-15T03:11:37;1.50;99.90
52965;DHT22;42923;53.220;6.528;2024-01-15T03:14:04;1.50;99.90
52965;DHT22;42923;53.220;6.528;2024-01-15T03:16:30;1.50;99.90
52965;DHT22;42923;53.220;6.528;2024-01-15T03:18:55;1.60;99.90
52965;DHT22;42923;53.220;6.528;2024-01-15T03:21:21;1.50;99.90
52965;DHT22;42923;53.220;6.528;2024-01-15T03:23:47;1.50;99.90
52965;DHT22;42923;53.220;6.528;2024-01-15T03:26:12;1.60;99.90
52965;DHT22;42923;53.220;6.528;2024-01-15T03:28:38;1.60;99.90
52965;DHT22;42923;53.220;6.528;2024-01-15T03:31:04;1.70;99.90
52965;DHT22;42923;53.220;6.528;2024-01-15T03:33:30;1.70;99.90
52965;DHT22;42923;53.220;6.528;2024-01-15T03:35:55;1.70;99.90
52965;DHT22;42923;53.220;6.528;2024-01-15T03:38:22;1.60;99.90
52965;DHT22;42923;53.220;6.528;2024-01-15T03:40:48;1.60;99.90
52965;DHT22;42923;53.220;6.528;2024-01-15T03:43:13;1.60;99.90
52965;DHT22;42923;53.220;6.528;2024-01-15T03:45:39;1.50;99.90
52965;DHT22;42923;53.220;6.528;2024-01-15T03:48:05;1.50;99.90
52965;DHT22;42923;53.220;6.528;2024-01-15T03:50:31;1.50;99.90
52965;DHT22;42923;53.220;6.528;2024-01-15T03:52:56;1.50;99.90
52965;DHT22;42923;53.220;6.528;2024-01-15T03:55:22;1.50;99.90
52965;DHT22;42923;53.220;6.528;2024-01-15T03:57:48;1.50;99.90
52965;DHT22;42923;53.220;6.528;2024-01-15T04:00:15;1.60;99.90
52965;DHT22;42923;53.220;6.528;2024-01-15T04:02:43;1.80;99.90
52965;DHT22;42923;53.220;6.528;2024-01-15T04:05:09;1.90;99.90
52965;DHT22;42923;53.220;6.528;2024-01-15T04:07:35;2.00;99.90
52965;DHT22;42923;53.220;6.528;2024-01-15T04:10:01;2.10;99.90
52965;DHT22;42923;53.220;6.528;2024-01-15T04:12:27;2.20;99.90
52965;DHT22;42923;53.220;6.528;2024-01-15T04:14:53;2.30;99.90
52965;DHT22;42923;53.220;6.528;2024-01-15T04:17:18;2.40;99.90
52965;DHT22;42923;53.220;6.528;2024-01-15T04:19:45;2.50;99.90
52965;DHT22;42923;53.220;6.528;2024-01-15T04:22:10;2.50;99.90
52965;DHT22;42923;53.220;6.528;2024-01-15T04:24:36;2.40;99.90
52965;DHT22;42923;53.220;6.528;2024-01-15T04:27:02;2.30;99.90
52965;DHT22;42923;53.220;6.528;2024-01-15T04:29:28;2.20;99.90
52965;DHT22;42923;53.220;6.528;2024-01-15T04:31:53;2.20;99.90
52965;DHT22;42923;53.220;6.528;2024-01-15T04:34:19;2.10;99.90
52965;DHT22;42923;53.220;6.528;2024-01-15T04:36:45;2.00;99.90
52965;DHT22;42923;53.220;6.528;2024-01-15T04:39:10;2.00;99.90
52965;DHT22;42923;53.220;6.528;2024-01-15T04:41:37;1.90;99.90
52965;DHT22;42923;53.220;6.528;2024-01-15T04:44:03;2.80;99.90
52965;DHT22;42923;53.220;6.528;2024-01-15T04:46:28;1.80;99.90
52965;DHT22;42923;53.220;6.528;2024-01-15T04:48:54;1.70;99.90
52965;DHT22;42923;53.220;6.528;2024-01-15T04:51:20;1.70;99.90
52965;DHT22;42923;53.220;6.528;2024-01-15T04:53:46;1.60;99.90
52965;DHT22;42923;53.220;6.528;2024-01-15T04:56:11;1.60;99.90
52965;DHT22;42923;53.220;6.528;2024-01-15T04:58:37;1.50;99.90
52965;DHT22;42923;53.220;6.528;2024-01-15T05:01:03;1.40;99.90
52965;DHT22;42923;53.220;6.528;2024-01-15T05:03:29;1.40;99.90
52965;DHT22;42923;53.220;6.528;2024-01-15T05:05:55;1.30;99.90
52965;DHT22;42923;53.220;6.528;2024-01-15T05:08:21;1.10;99.90
52965;DHT22;42923;53.220;6.528;2024-01-15T05:10:47;1.10;99.90
52965;DHT22;42923;53.220;6.528;2024-01-15T05:13:13;1.00;99.90
52965;DHT22;42923;53.220;6.528;2024-01-15T05:15:39;1.00;99.90
52965;DHT22;42923;53.220;6.528;2024-01-15T05:18:04;0.90;99.90
52965;DHT22;42923;53.220;6.528;2024-01-15T05:20:30;0.80;99.90
52965;DHT22;42923;53.220;6.528;2024-01-15T05:22:56;0.80;99.90
52965;DHT22;42923;53.220;6.528;2024-01-15T05:25:22;0.70;99.90
52965;DHT22;42923;53.220;6.528;2024-01-15T05:27:48;0.60;99.90
52965;DHT22;42923;53.220;6.528;2024-01-15T05:30:14;0.50;99.90
52965;DHT22;42923;53.220;6.528;2024-01-15T05:32:40;0.40;99.90
52965;DHT22;42923;53.220;6.528;2024-01-15T05:35:06;0.40;99.90
52965;DHT22;42923;53.220;6.528;2024-01-15T05:37:32;0.30;99.90
52965;DHT22;42923;53.220;6.528;2024-01-15T05:39:57;0.20;99.90
52965;DHT22;42923;53.220;6.528;2024-01-15T05:42:23;0.20;99.90
52965;DHT22;42923;53.220;6.528;2024-01-15T05:44:49;0.20;99.90
52965;DHT22;42923;53.220;6.528;2024-01-15T05:47:14;0.20;99.90
52965;DHT22;42923;53.220;6.528;2024-01-15T05:49:40;0.40;99.90
52965;DHT22;42923;53.220;6.528;2024-01-15T05:52:06;0.20;99.90
52965;DHT22;42923;53.220;6.528;2024-01-15T05:54:32;0.20;99.90
52965;DHT22;42923;53.220;6.528;2024-01-15T05:56:57;0.30;99.90
52965;DHT22;42923;53.220;6.528;2024-01-15T05:59:23;0.30;99.90
52965;DHT22;42923;53.220;6.528;2024-01-15T06:01:48;0.80;99.90
52965;DHT22;42923;53.220;6.528;2024-01-15T06:04:14;0.50;99.90
52965;DHT22;42923;53.220;6.528;2024-01-15T06:06:39;0.60;99.90
52965;DHT22;42923;53.220;6.528;2024-01-15T06:09:05;0.60;99.90
52965;DHT22;42923;53.220;6.528;2024-01-15T06:11:31;0.00;99.90
52965;DHT22;42923;53.220;6.528;2024-01-15T06:13:57;0.60;99.90
52965;DHT22;42923;53.220;6.528;2024-01-15T06:16:23;0.50;99.90
52965;DHT22;42923;53.220;6.528;2024-01-15T06:18:49;1.30;99.90
52965;DHT22;42923;53.220;6.528;2024-01-15T06:21:14;0.40;99.90
52965;DHT22;42923;53.220;6.528;2024-01-15T06:23:40;0.70;99.90
52965;DHT22;42923;53.220;6.528;2024-01-15T06:26:06;0.50;99.90
52965;DHT22;42923;53.220;6.528;2024-01-15T06:28:32;0.70;99.90
52965;DHT22;42923;53.220;6.528;2024-01-15T06:30:57;1.10;99.90
52965;DHT22;42923;53.220;6.528;2024-01-15T06:33:23;0.60;99.90
52965;DHT22;42923;53.220;6.528;2024-01-15T06:35:49;0.60;99.90
52965;DHT22;42923;53.220;6.528;2024-01-15T06:38:15;0.80;99.90
52965;DHT22;42923;53.220;6.528;2024-01-15T06:40:41;0.80;99.90
52965;DHT22;42923;53.220;6.528;2024-01-15T06:43:11;0.90;99.90
52965;DHT22;42923;53.220;6.528;2024-01-15T06:45:36;1.00;99.90
52965;DHT22;42923;53.220;6.528;2024-01-15T06:48:02;1.00;99.90
52965;DHT22;42923;53.220;6.528;2024-01-15T06:50:28;1.10;99.90
52965;DHT22;42923;53.220;6.528;2024-01-15T06:52:53;1.10;99.90
52965;DHT22;42923;53.220;6.528;2024-01-15T06:55:19;1.10;99.90
52965;DHT22;42923;53.220;6.528;2024-01-15T06:57:44;1.10;99.90
52965;DHT22;42923;53.220;6.528;2024-01-15T07:00:10;1.10;99.90
52965;DHT22;42923;53.220;6.528;2024-01-15T07:02:36;1.10;99.90
52965;DHT22;42923;53.220;6.528;2024-01-15T07:05:02;1.20;99.90
52965;DHT22;42923;53.220;6.528;2024-01-15T07:07:30;1.10;99.90
52965;DHT22;42923;53.220;6.528;2024-01-15T07:09:56;1.10;99.90
52965;DHT22;42923;53.220;6.528;2024-01-15T07:12:22;1.10;99.90
52965;DHT22;42923;53.220;6.528;2024-01-15T07:14:47;1.40;99.90
52965;DHT22;42923;53.220;6.528;2024-01-15T07:17:13;1.10;99.90
52965;DHT22;42923;53.220;6.528;2024-01-15T07:19:38;1.10;99.90
52965;DHT22;42923;53.220;6.528;2024-01-15T07:22:04;1.40;99.90
52965;DHT22;42923;53.220;6.528;2024-01-15T07:24:30;1.10;99.90
52965;DHT22;42923;53.220;6.528;2024-01-15T07:26:55;0.90;99.90
52965;DHT22;42923;53.220;6.528;2024-01-15T07:29:21;0.80;99.90
52965;DHT22;42923;53.220;6.528;2024-01-15T07:31:50;2.10;99.90
52965;DHT22;42923;53.220;6.528;2024-01-15T07:34:16;0.70;99.90
52965;DHT22;42923;53.220;6.528;2024-01-15T07:36:43;1.60;99.90
52965;DHT22;42923;53.220;6.528;2024-01-15T07:39:09;0.50;99.90
52965;DHT22;42923;53.220;6.528;2024-01-15T07:41:35;0.40;99.90
52965;DHT22;42923;53.220;6.528;2024-01-15T07:44:02;0.40;99.90
52965;DHT22;42923;53.220;6.528;2024-01-15T07:46:27;0.40;99.90
52965;DHT22;42923;53.220;6.528;2024-01-15T07:48:53;0.40;99.90
52965;DHT22;42923;53.220;6.528;2024-01-15T07:51:22;0.50;99.90
52965;DHT22;42923;53.220;6.528;2024-01-15T07:53:47;0.60;99.90
52965;DHT22;42923;53.220;6.528;2024-01-15T07:56:13;0.60;99.90
52965;DHT22;42923;53.220;6.528;2024-01-15T07:58:39;0.60;99.90
52965;DHT22;42923;53.220;6.528;2024-01-15T08:01:04;0.60;99.90
52965;DHT22;42923;53.220;6.528;2024-01-15T08:03:30;0.60;99.90
52965;DHT22;42923;53.220;6.528;2024-01-15T08:05:56;0.70;99.90
52965;DHT22;42923;53.220;6.528;2024-01-15T08:08:23;0.70;99.90
52965;DHT22;42923;53.220;6.528;2024-01-15T08:10:48;0.70;99.90
52965;DHT22;42923;53.220;6.528;2024-01-15T08:13:14;1.90;99.90
52965;DHT22;42923;53.220;6.528;2024-01-15T08:15:40;1.50;99.90
52965;DHT22;42923;53.220;6.528;2024-01-15T08:18:06;0.80;99.90
52965;DHT22;42923;53.220;6.528;2024-01-15T08:20:32;0.80;99.90
52965;DHT22;42923;53.220;6.528;2024-01-15T08:22:57;0.80;99.90
52965;DHT22;42923;53.220;6.528;2024-01-15T08:25:23;0.80;99.90
52965;DHT22;42923;53.220;6.528;2024-01-15T08:27:48;0.70;99.90
52965;DHT22;42923;53.220;6.528;2024-01-15T08:30:14;0.70;99.90
52965;DHT22;42923;53.220;6.528;2024-01-15T08:32:40;0.80;99.90
52965;DHT22;42923;53.220;6.528;2024-01-15T08:35:08;0.80;99.90
52965;DHT22;42923;53.220;6.528;2024-01-15T08:37:34;0.90;99.90
52965;DHT22;42923;53.220;6.528;2024-01-15T08:40:00;1.00;99.90
52965;DHT22;42923;53.220;6.528;2024-01-15T08:42:25;2.50;99.90
52965;DHT22;42923;53.220;6.528;2024-01-15T08:44:51;1.20;99.90
52965;DHT22;42923;53.220;6.528;2024-01-15T08:47:17;1.30;99.90
52965;DHT22;42923;53.220;6.528;2024-01-15T08:49:42;1.40;99.90
52965;DHT22;42923;53.220;6.528;2024-01-15T08:52:09;1.50;99.90
52965;DHT22;42923;53.220;6.528;2024-01-15T08:54:35;1.60;99.90
52965;DHT22;42923;53.220;6.528;2024-01-15T08:57:00;1.60;99.90
52965;DHT22;42923;53.220;6.528;2024-01-15T08:59:26;1.60;99.90
52965;DHT22;42923;53.220;6.528;2024-01-15T09:01:52;1.50;99.90
52965;DHT22;42923;53.220;6.528;2024-01-15T09:04:18;1.40;99.90
52965;DHT22;42923;53.220;6.528;2024-01-15T09:06:45;1.40;99.90
52965;DHT22;42923;53.220;6.528;2024-01-15T09:09:12;1.40;99.90
52965;DHT22;42923;53.220;6.528;2024-01-15T09:11:38;1.40;99.90
52965;DHT22;42923;53.220;6.528;2024-01-15T09:14:03;1.40;99.90
52965;DHT22;42923;53.220;6.528;2024-01-15T09:16:29;2.90;99.90
52965;DHT22;42923;53.220;6.528;2024-01-15T09:18:54;1.50;99.90
52965;DHT22;42923;53.220;6.528;2024-01-15T09:21:23;1.50;99.90
52965;DHT22;42923;53.220;6.528;2024-01-15T09:23:50;1.50;99.90
52965;DHT22;42923;53.220;6.528;2024-01-15T09:26:15;1.50;99.90
52965;DHT22;42923;53.220;6.528;2024-01-15T09:28:41;1.60;99.90
52965;DHT22;42923;53.220;6.528;2024-01-15T09:31:07;1.60;99.90
52965;DHT22;42923;53.220;6.528;2024-01-15T09:33:33;2.50;99.90
52965;DHT22;42923;53.220;6.528;2024-01-15T09:36:02;1.50;99.90
52965;DHT22;42923;53.220;6.528;2024-01-15T09:38:29;1.60;99.90
52965;DHT22;42923;53.220;6.528;2024-01-15T09:40:55;1.50;99.90
52965;DHT22;42923;53.220;6.528;2024-01-15T09:43:21;1.50;99.90
52965;DHT22;42923;53.220;6.528;2024-01-15T09:45:47;1.50;99.90
52965;DHT22;42923;53.220;6.528;2024-01-15T09:48:12;1.50;99.90
52965;DHT22;42923;53.220;6.528;2024-01-15T09:50:38;2.00;99.90
52965;DHT22;42923;53.220;6.528;2024-01-15T09:53:05;1.90;99.90
52965;DHT22;42923;53.220;6.528;2024-01-15T09:55:30;3.60;99.90
52965;DHT22;42923;53.220;6.528;2024-01-15T09:57:58;2.30;99.90
52965;DHT22;42923;53.220;6.528;2024-01-15T10:00:25;2.30;99.90
52965;DHT22;42923;53.220;6.528;2024-01-15T10:02:51;2.30;99.90
52965;DHT22;42923;53.220;6.528;2024-01-15T10:05:17;2.20;99.90
52965;DHT22;42923;53.220;6.528;2024-01-15T10:07:42;2.20;99.90
52965;DHT22;42923;53.220;6.528;2024-01-15T10:10:10;2.20;99.90
52965;DHT22;42923;53.220;6.528;2024-01-15T10:12:36;2.30;99.90
52965;DHT22;42923;53.220;6.528;2024-01-15T10:15:01;3.20;99.90
52965;DHT22;42923;53.220;6.528;2024-01-15T10:17:27;2.50;99.90
52965;DHT22;42923;53.220;6.528;2024-01-15T10:19:53;2.40;99.90
52965;DHT22;42923;53.220;6.528;2024-01-15T10:22:18;2.80;99.90
52965;DHT22;42923;53.220;6.528;2024-01-15T10:24:44;3.70;99.90
52965;DHT22;42923;53.220;6.528;2024-01-15T10:27:10;2.10;99.90
52965;DHT22;42923;53.220;6.528;2024-01-15T10:29:36;2.00;99.90
52965;DHT22;42923;53.220;6.528;2024-01-15T10:32:02;2.00;99.90
52965;DHT22;42923;53.220;6.528;2024-01-15T10:34:30;2.00;99.90
52965;DHT22;42923;53.220;6.528;2024-01-15T10:36:55;3.10;99.90
52965;DHT22;42923;53.220;6.528;2024-01-15T10:39:21;2.90;99.90
52965;DHT22;42923;53.220;6.528;2024-01-15T10:41:47;3.30;99.90
52965;DHT22;42923;53.220;6.528;2024-01-15T10:44:13;3.90;99.90
52965;DHT22;42923;53.220;6.528;2024-01-15T10:46:38;4.10;99.90
52965;DHT22;42923;53.220;6.528;2024-01-15T10:49:04;5.20;99.90
52965;DHT22;42923;53.220;6.528;2024-01-15T10:51:30;3.80;99.90
52965;DHT22;42923;53.220;6.528;2024-01-15T10:53:56;2.70;99.90
52965;DHT22;42923;53.220;6.528;2024-01-15T10:56:22;3.20;99.90
52965;DHT22;42923;53.220;6.528;2024-01-15T10:58:49;3.20;99.90
52965;DHT22;42923;53.220;6.528;2024-01-15T11:01:15;2.80;99.90
52965;DHT22;42923;53.220;6.528;2024-01-15T11:03:42;2.80;99.90
52965;DHT22;42923;53.220;6.528;2024-01-15T11:06:17;2.60;99.90
52965;DHT22;42923;53.220;6.528;2024-01-15T11:08:49;2.60;99.90
52965;DHT22;42923;53.220;6.528;2024-01-15T11:11:17;2.50;99.90
52965;DHT22;42923;53.220;6.528;2024-01-15T11:13:43;2.40;99.90
52965;DHT22;42923;53.220;6.528;2024-01-15T11:16:12;2.40;99.90
52965;DHT22;42923;53.220;6.528;2024-01-15T11:23:44;2.10;99.90
52965;DHT22;42923;53.220;6.528;2024-01-15T11:28:55;2.30;99.90
52965;DHT22;42923;53.220;6.528;2024-01-15T11:31:26;2.80;99.90
52965;DHT22;42923;53.220;6.528;2024-01-15T11:33:52;3.40;99.90
52965;DHT22;42923;53.220;6.528;2024-01-15T11:36:17;3.40;99.90
52965;DHT22;42923;53.220;6.528;2024-01-15T11:38:43;3.20;99.90
52965;DHT22;42923;53.220;6.528;2024-01-15T11:41:15;4.10;99.90
52965;DHT22;42923;53.220;6.528;2024-01-15T11:43:43;2.70;99.90
52965;DHT22;42923;53.220;6.528;2024-01-15T11:46:12;2.60;99.90
52965;DHT22;42923;53.220;6.528;2024-01-15T11:48:42;2.50;99.90
52965;DHT22;42923;53.220;6.528;2024-01-15T11:51:10;2.50;99.90
52965;DHT22;42923;53.220;6.528;2024-01-15T11:53:37;2.40;99.90
52965;DHT22;42923;53.220;6.528;2024-01-15T11:56:06;2.20;99.90
52965;DHT22;42923;53.220;6.528;2024-01-15T11:58:35;2.00;99.90
52965;DHT22;42923;53.220;6.528;2024-01-15T12:01:03;2.60;99.90
52965;DHT22;42923;53.220;6.528;2024-01-15T12:03:28;1.50;99.90
52965;DHT22;42923;53.220;6.528;2024-01-15T12:05:57;1.40;99.90
52965;DHT22;42923;53.220;6.528;2024-01-15T12:08:25;2.10;99.90
52965;DHT22;42923;53.220;6.528;2024-01-15T12:10:52;1.40;99.90
52965;DHT22;42923;53.220;6.528;2024-01-15T12:13:18;2.80;99.90
52965;DHT22;42923;53.220;6.528;2024-01-15T12:15:45;1.50;99.90
52965;DHT22;42923;53.220;6.528;2024-01-15T12:18:14;2.00;99.90
52965;DHT22;42923;53.220;6.528;2024-01-15T12:20:41;1.70;99.90
52965;DHT22;42923;53.220;6.528;2024-01-15T12:23:07;1.80;99.90
52965;DHT22;42923;53.220;6.528;2024-01-15T12:25:33;1.80;99.90
52965;DHT22;42923;53.220;6.528;2024-01-15T12:27:59;1.80;99.90
52965;DHT22;42923;53.220;6.528;2024-01-15T12:30:26;1.90;99.90
52965;DHT22;42923;53.220;6.528;2024-01-15T12:32:51;2.70;99.90
52965;DHT22;42923;53.220;6.528;2024-01-15T12:35:17;2.00;99.90
52965;DHT22;42923;53.220;6.528;2024-01-15T12:37:43;2.20;99.90
52965;DHT22;42923;53.220;6.528;2024-01-15T12:40:09;2.50;99.90
52965;DHT22;42923;53.220;6.528;2024-01-15T12:42:44;2.60;99.90
52965;DHT22;42923;53.220;6.528;2024-01-15T12:45:11;2.70;99.90
52965;DHT22;42923;53.220;6.528;2024-01-15T12:47:37;3.80;99.90
52965;DHT22;42923;53.220;6.528;2024-01-15T12:50:04;2.80;99.90
52965;DHT22;42923;53.220;6.528;2024-01-15T12:52:31;2.90;99.90
52965;DHT22;42923;53.220;6.528;2024-01-15T12:54:57;3.00;99.90
52965;DHT22;42923;53.220;6.528;2024-01-15T12:57:23;3.10;99.90
52965;DHT22;42923;53.220;6.528;2024-01-15T12:59:49;3.00;99.90
52965;DHT22;42923;53.220;6.528;2024-01-15T13:02:15;3.50;99.90
52965;DHT22;42923;53.220;6.528;2024-01-15T13:04:41;3.00;99.90
52965;DHT22;42923;53.220;6.528;2024-01-15T13:07:07;3.10;99.90
52965;DHT22;42923;53.220;6.528;2024-01-15T13:09:33;2.90;99.90
52965;DHT22;42923;53.220;6.528;2024-01-15T13:12:00;2.90;99.90
52965;DHT22;42923;53.220;6.528;2024-01-15T13:14:26;2.90;99.90
52965;DHT22;42923;53.220;6.528;2024-01-15T13:16:52;2.70;99.90
52965;DHT22;42923;53.220;6.528;2024-01-15T13:19:19;2.60;99.90
52965;DHT22;42923;53.220;6.528;2024-01-15T13:21:45;2.50;99.90
52965;DHT22;42923;53.220;6.528;2024-01-15T13:24:10;2.40;99.90
52965;DHT22;42923;53.220;6.528;2024-01-15T13:26:36;2.40;99.90
52965;DHT22;42923;53.220;6.528;2024-01-15T13:29:02;2.30;99.90
52965;DHT22;42923;53.220;6.528;2024-01-15T13:31:29;2.30;99.90
52965;DHT22;42923;53.220;6.528;2024-01-15T13:33:55;2.70;99.90
52965;DHT22;42923;53.220;6.528;2024-01-15T13:36:21;3.10;99.90
52965;DHT22;42923;53.220;6.528;2024-01-15T13:38:49;3.50;99.90
52965;DHT22;42923;53.220;6.528;2024-01-15T13:41:15;3.80;99.90
52965;DHT22;42923;53.220;6.528;2024-01-15T13:43:40;4.10;99.90
52965;DHT22;42923;53.220;6.528;2024-01-15T13:46:06;4.50;99.90
52965;DHT22;42923;53.220;6.528;2024-01-15T13:48:32;3.80;99.90
52965;DHT22;42923;53.220;6.528;2024-01-15T13:50:57;3.70;99.90
52965;DHT22;42923;53.220;6.528;2024-01-15T13:53:23;3.40;99.90
52965;DHT22;42923;53.220;6.528;2024-01-15T13:55:49;3.10;99.90
52965;DHT22;42923;53.220;6.528;2024-01-15T13:58:14;2.70;99.90
52965;DHT22;42923;53.220;6.528;2024-01-15T14:00:40;3.90;99.90
52965;DHT22;42923;53.220;6.528;2024-01-15T14:03:06;2.20;99.90
52965;DHT22;42923;53.220;6.528;2024-01-15T14:05:32;2.10;99.90
52965;DHT22;42923;53.220;6.528;2024-01-15T14:07:57;2.00;99.90
52965;DHT22;42923;53.220;6.528;2024-01-15T14:10:24;1.90;99.90
52965;DHT22;42923;53.220;6.528;2024-01-15T14:12:49;1.80;99.90
52965;DHT22;42923;53.220;6.528;2024-01-15T14:15:15;1.80;99.90
52965;DHT22;42923;53.220;6.528;2024-01-15T14:17:41;3.20;99.90
52965;DHT22;42923;53.220;6.528;2024-01-15T14:20:06;1.80;99.90
52965;DHT22;42923;53.220;6.528;2024-01-15T14:22:34;1.80;99.90
52965;DHT22;42923;53.220;6.528;2024-01-15T14:25:00;1.80;99.90
52965;DHT22;42923;53.220;6.528;2024-01-15T14:27:25;1.80;99.90
52965;DHT22;42923;53.220;6.528;2024-01-15T14:29:51;2.00;99.90
52965;DHT22;42923;53.220;6.528;2024-01-15T14:32:17;2.30;99.90
52965;DHT22;42923;53.220;6.528;2024-01-15T14:34:42;3.90;99.90
52965;DHT22;42923;53.220;6.528;2024-01-15T14:37:08;2.60;99.90
52965;DHT22;42923;53.220;6.528;2024-01-15T14:39:34;4.20;99.90
52965;DHT22;42923;53.220;6.528;2024-01-15T14:42:00;3.40;99.90
52965;DHT22;42923;53.220;6.528;2024-01-15T14:44:26;2.60;99.90
52965;DHT22;42923;53.220;6.528;2024-01-15T14:46:52;2.80;99.90
52965;DHT22;42923;53.220;6.528;2024-01-15T14:49:18;2.80;99.90
52965;DHT22;42923;53.220;6.528;2024-01-15T14:51:44;2.70;99.90
52965;DHT22;42923;53.220;6.528;2024-01-15T14:54:10;2.60;99.90
52965;DHT22;42923;53.220;6.528;2024-01-15T14:56:36;2.50;99.90
52965;DHT22;42923;53.220;6.528;2024-01-15T14:59:01;2.30;99.90
52965;DHT22;42923;53.220;6.528;2024-01-15T15:01:27;2.20;99.90
52965;DHT22;42923;53.220;6.528;2024-01-15T15:03:52;2.10;99.90
52965;DHT22;42923;53.220;6.528;2024-01-15T15:06:18;2.00;99.90
52965;DHT22;42923;53.220;6.528;2024-01-15T15:08:44;1.90;99.90
52965;DHT22;42923;53.220;6.528;2024-01-15T15:11:09;3.30;99.90
52965;DHT22;42923;53.220;6.528;2024-01-15T15:13:36;1.90;99.90
52965;DHT22;42923;53.220;6.528;2024-01-15T15:16:02;1.80;99.90
52965;DHT22;42923;53.220;6.528;2024-01-15T15:18:27;1.80;99.90
52965;DHT22;42923;53.220;6.528;2024-01-15T15:20:55;1.80;99.90
52965;DHT22;42923;53.220;6.528;2024-01-15T15:23:21;2.40;99.90
52965;DHT22;42923;53.220;6.528;2024-01-15T15:25:46;1.70;99.90
52965;DHT22;42923;53.220;6.528;2024-01-15T15:28:12;1.70;99.90
52965;DHT22;42923;53.220;6.528;2024-01-15T15:30:39;1.60;99.90
52965;DHT22;42923;53.220;6.528;2024-01-15T15:33:05;1.50;99.90
52965;DHT22;42923;53.220;6.528;2024-01-15T15:35:31;1.50;99.90
52965;DHT22;42923;53.220;6.528;2024-01-15T15:37:56;1.40;99.90
52965;DHT22;42923;53.220;6.528;2024-01-15T15:40:22;1.40;99.90
52965;DHT22;42923;53.220;6.528;2024-01-15T15:42:52;1.40;99.90
52965;DHT22;42923;53.220;6.528;2024-01-15T15:45:18;1.30;99.90